Terminal Aerodrome Forecast
Issued by NWS

Home | Current Version | Previous Version | Text Only | Print | Product List | Glossary On
Versions: 1 2 3 4 5 6 7 8 9 10 11 12 13 14 15 16 17 18 19 20 21 22 23
000
FTUS43 KDLH 261722
TAFBRD
TAF
KBRD 261722Z 2618/2718 29014G25KT P6SM BKN050
     FM262000 29020G32KT P6SM BKN050
     FM262300 30017G28KT P6SM BKN045
     FM270300 31014G22KT P6SM SCT035
     FM271100 31014G22KT P6SM OVC015
     FM271600 32015G25KT P6SM OVC020=

USA.gov is the U.S. government's official web portal to all federal, state and local government web resources and services.